SWR142 EDDF-LIEE
Flight info
| Callsign | SWR142 |
|---|---|
| Flight time | 1h 47m |
| Altitude | 41000 |
| Route | ANEKI2L/18 ANEKI Y163 NATOR DCT TRA DCT RIPUS DCT GERSA DCT SOSON DCT ODINA DCT GOLAS DCT MAMAR DCT BATOX DCT OKIDO DCT VAVAX DCT LABOM Q125 KOVAS KOVAS1V |
| Aircraft | A359/H-SDE2E3GHIJ3J4J5LM1ORWXY/LB1D1 |
Departure
| Time | 2026-04-14 15:12 |
|---|---|
| Airport | Frankfurt Main Airport (EDDF) |
Arrival
| Time | 2026-04-14 16:59 |
|---|---|
| Airport | Cagliari Elmas Airport (LIEE) |
| Time | Latitude | Longitude | Altitude | Speed | Heading |
|---|---|---|---|---|---|
| 2026-04-14 14:43 | 50.03740 | 8.54220 | 362 ft | 0 kts | 159° |
| 2026-04-14 15:08 | 50.03703 | 8.54239 | 360 ft | 8 kts | 168° |
| 2026-04-14 15:09 | 50.03645 | 8.54206 | 360 ft | 11 kts | 221° |
| 2026-04-14 15:09 | 50.03606 | 8.54094 | 360 ft | 13 kts | 249° |
| 2026-04-14 15:09 | 50.03570 | 8.53945 | 362 ft | 16 kts | 249° |
| 2026-04-14 15:09 | 50.03525 | 8.53762 | 362 ft | 19 kts | 249° |
| 2026-04-14 15:10 | 50.03478 | 8.53567 | 356 ft | 21 kts | 249° |
| 2026-04-14 15:10 | 50.03430 | 8.53364 | 359 ft | 21 kts | 250° |
| 2026-04-14 15:10 | 50.03377 | 8.53141 | 357 ft | 16 kts | 250° |
| 2026-04-14 15:10 | 50.03335 | 8.52966 | 357 ft | 19 kts | 250° |
| 2026-04-14 15:11 | 50.03286 | 8.52760 | 362 ft | 22 kts | 250° |
| 2026-04-14 15:11 | 50.03179 | 8.52599 | 360 ft | 23 kts | 187° |
| 2026-04-14 15:11 | 50.02934 | 8.52598 | 352 ft | 66 kts | 179° |
| 2026-04-14 15:11 | 50.02226 | 8.52607 | 357 ft | 137 kts | 180° |
| 2026-04-14 15:12 | 50.01090 | 8.52623 | 629 ft | 175 kts | 177° |
| 2026-04-14 15:12 | 49.99896 | 8.52665 | 1538 ft | 171 kts | 177° |
| 2026-04-14 15:12 | 49.98627 | 8.52754 | 2102 ft | 199 kts | 177° |
| 2026-04-14 15:12 | 49.97130 | 8.52864 | 2526 ft | 228 kts | 176° |
| 2026-04-14 15:13 | 49.95516 | 8.52980 | 3178 ft | 235 kts | 176° |
| 2026-04-14 15:13 | 49.93869 | 8.53095 | 3740 ft | 237 kts | 176° |
| 2026-04-14 15:13 | 49.92221 | 8.53207 | 3997 ft | 237 kts | 177° |
| 2026-04-14 15:13 | 49.90559 | 8.53321 | 4404 ft | 242 kts | 177° |
| 2026-04-14 15:14 | 49.88870 | 8.53434 | 5191 ft | 244 kts | 176° |
| 2026-04-14 15:14 | 49.87170 | 8.53548 | 5968 ft | 246 kts | 176° |
| 2026-04-14 15:14 | 49.85448 | 8.53663 | 6693 ft | 249 kts | 175° |
| 2026-04-14 15:14 | 49.83712 | 8.53779 | 7420 ft | 249 kts | 176° |
| 2026-04-14 15:15 | 49.81979 | 8.53894 | 8204 ft | 248 kts | 176° |
| 2026-04-14 15:15 | 49.80258 | 8.54009 | 9022 ft | 247 kts | 177° |
| 2026-04-14 15:15 | 49.78571 | 8.54104 | 9847 ft | 244 kts | 180° |
| 2026-04-14 15:15 | 49.76864 | 8.53989 | 10496 ft | 251 kts | 185° |
| 2026-04-14 15:16 | 49.75059 | 8.53758 | 10775 ft | 270 kts | 186° |
| 2026-04-14 15:16 | 49.73126 | 8.53492 | 11103 ft | 286 kts | 186° |
| 2026-04-14 15:16 | 49.71118 | 8.53220 | 11658 ft | 292 kts | 186° |
| 2026-04-14 15:16 | 49.69077 | 8.52946 | 12292 ft | 296 kts | 186° |
| 2026-04-14 15:17 | 49.66991 | 8.52668 | 12751 ft | 307 kts | 186° |
| 2026-04-14 15:17 | 49.64802 | 8.52376 | 13010 ft | 324 kts | 186° |
| 2026-04-14 15:17 | 49.62506 | 8.52071 | 13252 ft | 339 kts | 186° |
| 2026-04-14 15:17 | 49.60103 | 8.51754 | 13484 ft | 353 kts | 186° |
| 2026-04-14 15:18 | 49.57623 | 8.51428 | 13859 ft | 361 kts | 186° |
| 2026-04-14 15:18 | 49.55106 | 8.51098 | 14334 ft | 365 kts | 186° |
| 2026-04-14 15:18 | 49.52559 | 8.50765 | 14818 ft | 368 kts | 186° |
| 2026-04-14 15:18 | 49.49997 | 8.50429 | 15319 ft | 371 kts | 186° |
| 2026-04-14 15:19 | 49.47416 | 8.50091 | 15802 ft | 374 kts | 186° |
| 2026-04-14 15:19 | 49.44809 | 8.49750 | 16299 ft | 377 kts | 186° |
| 2026-04-14 15:19 | 49.42184 | 8.49407 | 16784 ft | 380 kts | 186° |
| 2026-04-14 15:19 | 49.39547 | 8.49063 | 17311 ft | 382 kts | 186° |
| 2026-04-14 15:20 | 49.36881 | 8.48715 | 17802 ft | 385 kts | 186° |
| 2026-04-14 15:20 | 49.34200 | 8.48365 | 18281 ft | 388 kts | 186° |
| 2026-04-14 15:20 | 49.31494 | 8.48012 | 18719 ft | 391 kts | 186° |
| 2026-04-14 15:20 | 49.28771 | 8.47658 | 19140 ft | 394 kts | 186° |
| 2026-04-14 15:21 | 49.26034 | 8.47308 | 19577 ft | 396 kts | 186° |
| 2026-04-14 15:21 | 49.23284 | 8.46952 | 20001 ft | 398 kts | 186° |
| 2026-04-14 15:21 | 49.20508 | 8.46590 | 20423 ft | 400 kts | 186° |
| 2026-04-14 15:21 | 49.17778 | 8.46233 | 20949 ft | 399 kts | 186° |
| 2026-04-14 15:22 | 49.15005 | 8.45871 | 21375 ft | 402 kts | 186° |
| 2026-04-14 15:22 | 49.12211 | 8.45507 | 21759 ft | 404 kts | 186° |
| 2026-04-14 15:22 | 49.09397 | 8.45141 | 22178 ft | 406 kts | 186° |
| 2026-04-14 15:22 | 49.06576 | 8.44642 | 22570 ft | 408 kts | 191° |
| 2026-04-14 15:23 | 49.03780 | 8.43836 | 22963 ft | 410 kts | 193° |
| 2026-04-14 15:23 | 49.00985 | 8.42931 | 23365 ft | 412 kts | 193° |
| 2026-04-14 15:23 | 48.98182 | 8.41967 | 23754 ft | 414 kts | 194° |
| 2026-04-14 15:23 | 48.95371 | 8.40975 | 24101 ft | 416 kts | 194° |
| 2026-04-14 15:24 | 48.92544 | 8.39972 | 24389 ft | 419 kts | 194° |
| 2026-04-14 15:24 | 48.89694 | 8.38965 | 24702 ft | 422 kts | 194° |
| 2026-04-14 15:24 | 48.86822 | 8.37958 | 25002 ft | 425 kts | 194° |
| 2026-04-14 15:24 | 48.83930 | 8.36951 | 25322 ft | 428 kts | 194° |
| 2026-04-14 15:25 | 48.81019 | 8.35941 | 25656 ft | 431 kts | 194° |
| 2026-04-14 15:25 | 48.78089 | 8.34927 | 26002 ft | 433 kts | 194° |
| 2026-04-14 15:25 | 48.75141 | 8.33878 | 26356 ft | 436 kts | 194° |
| 2026-04-14 15:25 | 48.72182 | 8.32797 | 26715 ft | 439 kts | 195° |
| 2026-04-14 15:26 | 48.69205 | 8.31699 | 27077 ft | 442 kts | 195° |
| 2026-04-14 15:26 | 48.66205 | 8.30593 | 27444 ft | 446 kts | 195° |
| 2026-04-14 15:26 | 48.63177 | 8.29480 | 27821 ft | 449 kts | 194° |
| 2026-04-14 15:26 | 48.60122 | 8.28364 | 28215 ft | 453 kts | 194° |
| 2026-04-14 15:27 | 48.57084 | 8.27258 | 28623 ft | 456 kts | 194° |
| 2026-04-14 15:27 | 48.53981 | 8.26132 | 29014 ft | 460 kts | 194° |
| 2026-04-14 15:27 | 48.50826 | 8.25228 | 29395 ft | 465 kts | 188° |
| 2026-04-14 15:27 | 48.47578 | 8.25014 | 29797 ft | 470 kts | 178° |
| 2026-04-14 15:28 | 48.44311 | 8.25475 | 30202 ft | 474 kts | 173° |
| 2026-04-14 15:28 | 48.41029 | 8.26166 | 30560 ft | 477 kts | 172° |
| 2026-04-14 15:28 | 48.37741 | 8.26963 | 30909 ft | 481 kts | 171° |
| 2026-04-14 15:28 | 48.34426 | 8.27807 | 31254 ft | 484 kts | 171° |
| 2026-04-14 15:29 | 48.31092 | 8.28660 | 31610 ft | 487 kts | 171° |
| 2026-04-14 15:29 | 48.27742 | 8.29505 | 31945 ft | 490 kts | 171° |
| 2026-04-14 15:29 | 48.25508 | 8.30061 | 32148 ft | 492 kts | 171° |
| 2026-04-14 15:29 | 48.22119 | 8.30893 | 32452 ft | 495 kts | 171° |
| 2026-04-14 15:30 | 48.18704 | 8.31720 | 32751 ft | 498 kts | 171° |
| 2026-04-14 15:30 | 48.15272 | 8.32547 | 33035 ft | 501 kts | 171° |
| 2026-04-14 15:30 | 48.11816 | 8.33381 | 33320 ft | 504 kts | 171° |
| 2026-04-14 15:30 | 48.08346 | 8.34221 | 33590 ft | 507 kts | 171° |
| 2026-04-14 15:31 | 48.04853 | 8.35067 | 33879 ft | 509 kts | 171° |
| 2026-04-14 15:31 | 48.01359 | 8.35912 | 34273 ft | 509 kts | 171° |
| 2026-04-14 15:31 | 47.97858 | 8.36759 | 34626 ft | 508 kts | 171° |
| 2026-04-14 15:31 | 47.94369 | 8.37601 | 34987 ft | 508 kts | 171° |
| 2026-04-14 15:32 | 47.90878 | 8.38441 | 35302 ft | 508 kts | 171° |
| 2026-04-14 15:32 | 47.87392 | 8.39280 | 35644 ft | 508 kts | 171° |
| 2026-04-14 15:32 | 47.83903 | 8.40117 | 35971 ft | 508 kts | 171° |
| 2026-04-14 15:32 | 47.80417 | 8.40953 | 36292 ft | 508 kts | 171° |
| 2026-04-14 15:33 | 47.76925 | 8.41790 | 36588 ft | 508 kts | 171° |
| 2026-04-14 15:33 | 47.73433 | 8.42625 | 36915 ft | 509 kts | 171° |
| 2026-04-14 15:33 | 47.69947 | 8.43457 | 37320 ft | 506 kts | 171° |
| 2026-04-14 15:33 | 47.66469 | 8.44254 | 37756 ft | 504 kts | 173° |
| 2026-04-14 15:34 | 47.63029 | 8.44846 | 38057 ft | 504 kts | 175° |
| 2026-04-14 15:34 | 47.59532 | 8.45322 | 38330 ft | 505 kts | 175° |
| 2026-04-14 15:34 | 47.56030 | 8.45759 | 38610 ft | 506 kts | 175° |
| 2026-04-14 15:34 | 47.52515 | 8.46203 | 38881 ft | 506 kts | 175° |
| 2026-04-14 15:35 | 47.49009 | 8.46668 | 39092 ft | 506 kts | 175° |
| 2026-04-14 15:35 | 47.45499 | 8.47155 | 39309 ft | 506 kts | 175° |
| 2026-04-14 15:35 | 47.41986 | 8.47659 | 39528 ft | 506 kts | 174° |
| 2026-04-14 15:35 | 47.38480 | 8.48170 | 39753 ft | 506 kts | 174° |
| 2026-04-14 15:36 | 47.34977 | 8.48684 | 39985 ft | 506 kts | 174° |
| 2026-04-14 15:36 | 47.31481 | 8.49198 | 40191 ft | 506 kts | 174° |
| 2026-04-14 15:36 | 47.27977 | 8.49712 | 40401 ft | 505 kts | 174° |
| 2026-04-14 15:36 | 47.24479 | 8.50223 | 40590 ft | 505 kts | 174° |
| 2026-04-14 15:37 | 47.20980 | 8.50734 | 40760 ft | 506 kts | 174° |
| 2026-04-14 15:37 | 47.17477 | 8.51245 | 40947 ft | 505 kts | 174° |
| 2026-04-14 15:37 | 47.13974 | 8.51755 | 41127 ft | 506 kts | 174° |
| 2026-04-14 15:37 | 47.10469 | 8.52264 | 41183 ft | 506 kts | 174° |
| 2026-04-14 15:38 | 47.03463 | 8.53279 | 41185 ft | 506 kts | 174° |
| 2026-04-14 15:38 | 46.96462 | 8.54296 | 41173 ft | 506 kts | 174° |
| 2026-04-14 15:39 | 46.89505 | 8.55295 | 41165 ft | 506 kts | 174° |
| 2026-04-14 15:39 | 46.82491 | 8.56298 | 41165 ft | 506 kts | 174° |
| 2026-04-14 15:40 | 46.75472 | 8.57303 | 41149 ft | 506 kts | 174° |
| 2026-04-14 15:40 | 46.68484 | 8.58302 | 41121 ft | 504 kts | 174° |
| 2026-04-14 15:41 | 46.61509 | 8.59296 | 41101 ft | 503 kts | 174° |
| 2026-04-14 15:41 | 46.54540 | 8.60292 | 41083 ft | 504 kts | 174° |
| 2026-04-14 15:42 | 46.47609 | 8.61271 | 41059 ft | 504 kts | 174° |
| 2026-04-14 15:42 | 46.40634 | 8.62255 | 41058 ft | 504 kts | 174° |
| 2026-04-14 15:43 | 46.33651 | 8.63238 | 41009 ft | 504 kts | 174° |
| 2026-04-14 15:43 | 46.26670 | 8.64219 | 40990 ft | 504 kts | 174° |
| 2026-04-14 15:44 | 46.19695 | 8.65198 | 40974 ft | 504 kts | 174° |
| 2026-04-14 15:44 | 46.12723 | 8.66261 | 40972 ft | 504 kts | 171° |
| 2026-04-14 15:45 | 46.06016 | 8.69103 | 40993 ft | 503 kts | 159° |
| 2026-04-14 15:45 | 45.99526 | 8.72861 | 40993 ft | 503 kts | 157° |
| 2026-04-14 15:46 | 45.93069 | 8.76755 | 40992 ft | 502 kts | 157° |
| 2026-04-14 15:46 | 45.86625 | 8.80611 | 40992 ft | 502 kts | 157° |
| 2026-04-14 15:47 | 45.80207 | 8.84408 | 40992 ft | 502 kts | 157° |
| 2026-04-14 15:47 | 45.73751 | 8.88205 | 40991 ft | 502 kts | 158° |
| 2026-04-14 15:48 | 45.67295 | 8.91992 | 40993 ft | 502 kts | 158° |
| 2026-04-14 15:48 | 45.60823 | 8.95780 | 40995 ft | 502 kts | 158° |
| 2026-04-14 15:49 | 45.54354 | 8.99557 | 40999 ft | 502 kts | 158° |
| 2026-04-14 15:49 | 45.47881 | 9.03327 | 41014 ft | 501 kts | 158° |
| 2026-04-14 15:50 | 45.41436 | 9.07073 | 41018 ft | 501 kts | 158° |
| 2026-04-14 15:50 | 45.34989 | 9.10809 | 41016 ft | 500 kts | 158° |
| 2026-04-14 15:51 | 45.28552 | 9.14531 | 41013 ft | 499 kts | 158° |
| 2026-04-14 15:51 | 45.22145 | 9.18226 | 41010 ft | 501 kts | 158° |
| 2026-04-14 15:52 | 45.15691 | 9.21939 | 40998 ft | 501 kts | 158° |
| 2026-04-14 15:52 | 45.09203 | 9.25663 | 41004 ft | 503 kts | 158° |
| 2026-04-14 15:53 | 45.02735 | 9.29367 | 41000 ft | 499 kts | 158° |
| 2026-04-14 15:53 | 44.96308 | 9.33037 | 41003 ft | 498 kts | 158° |
| 2026-04-14 15:54 | 44.86681 | 9.38518 | 41015 ft | 497 kts | 158° |
| 2026-04-14 15:55 | 44.80264 | 9.42161 | 41011 ft | 498 kts | 158° |
| 2026-04-14 15:55 | 44.73837 | 9.45802 | 41011 ft | 497 kts | 158° |
| 2026-04-14 15:56 | 44.67445 | 9.49413 | 41006 ft | 499 kts | 158° |
| 2026-04-14 15:56 | 44.60990 | 9.53051 | 40997 ft | 499 kts | 158° |
| 2026-04-14 15:57 | 44.54548 | 9.56673 | 41002 ft | 499 kts | 158° |
| 2026-04-14 15:57 | 44.48106 | 9.60287 | 40997 ft | 498 kts | 158° |
| 2026-04-14 15:58 | 44.41681 | 9.63921 | 40985 ft | 497 kts | 157° |
| 2026-04-14 15:58 | 44.35298 | 9.67662 | 40972 ft | 499 kts | 157° |
| 2026-04-14 15:59 | 44.28948 | 9.71392 | 40976 ft | 498 kts | 157° |
| 2026-04-14 15:59 | 44.22539 | 9.75130 | 40964 ft | 499 kts | 157° |
| 2026-04-14 16:00 | 44.16126 | 9.78848 | 40953 ft | 500 kts | 157° |
| 2026-04-14 16:00 | 44.09712 | 9.82557 | 40947 ft | 498 kts | 157° |
| 2026-04-14 16:01 | 44.03308 | 9.86251 | 40939 ft | 497 kts | 158° |
| 2026-04-14 16:01 | 43.96933 | 9.89920 | 40938 ft | 494 kts | 158° |
| 2026-04-14 16:02 | 43.90589 | 9.93563 | 40937 ft | 493 kts | 158° |
| 2026-04-14 16:02 | 43.84248 | 9.97197 | 40932 ft | 493 kts | 158° |
| 2026-04-14 16:03 | 43.77958 | 10.00792 | 40932 ft | 493 kts | 158° |
| 2026-04-14 16:03 | 43.71611 | 10.04412 | 40934 ft | 493 kts | 158° |
| 2026-04-14 16:04 | 43.65269 | 10.08021 | 40934 ft | 493 kts | 158° |
| 2026-04-14 16:04 | 43.58928 | 10.11621 | 40932 ft | 493 kts | 158° |
| 2026-04-14 16:05 | 43.52588 | 10.15212 | 40934 ft | 492 kts | 158° |
| 2026-04-14 16:05 | 43.46258 | 10.18789 | 40930 ft | 492 kts | 158° |
| 2026-04-14 16:06 | 43.39930 | 10.22358 | 40931 ft | 490 kts | 158° |
| 2026-04-14 16:06 | 43.33637 | 10.25898 | 40932 ft | 488 kts | 158° |
| 2026-04-14 16:07 | 43.27365 | 10.29419 | 40928 ft | 486 kts | 158° |
| 2026-04-14 16:07 | 43.21108 | 10.32923 | 40924 ft | 485 kts | 158° |
| 2026-04-14 16:08 | 43.14895 | 10.36395 | 40929 ft | 486 kts | 158° |
| 2026-04-14 16:08 | 43.08633 | 10.39886 | 40920 ft | 486 kts | 158° |
| 2026-04-14 16:09 | 43.02372 | 10.43370 | 40923 ft | 486 kts | 158° |
| 2026-04-14 16:09 | 42.96109 | 10.46847 | 40923 ft | 486 kts | 158° |
| 2026-04-14 16:10 | 42.89837 | 10.50321 | 40926 ft | 486 kts | 158° |
| 2026-04-14 16:10 | 42.83572 | 10.53783 | 40919 ft | 486 kts | 158° |
| 2026-04-14 16:11 | 42.77303 | 10.57240 | 40913 ft | 486 kts | 158° |
| 2026-04-14 16:11 | 42.71029 | 10.60693 | 40911 ft | 485 kts | 158° |
| 2026-04-14 16:12 | 42.64775 | 10.64127 | 40914 ft | 484 kts | 158° |
| 2026-04-14 16:12 | 42.58533 | 10.67547 | 40910 ft | 484 kts | 158° |
| 2026-04-14 16:13 | 42.52327 | 10.70940 | 40908 ft | 484 kts | 158° |
| 2026-04-14 16:13 | 42.46076 | 10.74350 | 40911 ft | 484 kts | 158° |
| 2026-04-14 16:14 | 42.39820 | 10.77755 | 40915 ft | 484 kts | 158° |
| 2026-04-14 16:14 | 42.33568 | 10.81152 | 40907 ft | 484 kts | 158° |
| 2026-04-14 16:15 | 42.27319 | 10.84538 | 40914 ft | 484 kts | 158° |
| 2026-04-14 16:15 | 42.21066 | 10.87920 | 40906 ft | 484 kts | 158° |
| 2026-04-14 16:16 | 42.14814 | 10.91295 | 40907 ft | 484 kts | 158° |
| 2026-04-14 16:16 | 42.08559 | 10.94664 | 40911 ft | 484 kts | 158° |
| 2026-04-14 16:17 | 42.02301 | 10.98026 | 40906 ft | 484 kts | 158° |
| 2026-04-14 16:17 | 41.96083 | 11.01361 | 40908 ft | 484 kts | 158° |
| 2026-04-14 16:18 | 41.89768 | 11.04503 | 40904 ft | 484 kts | 165° |
| 2026-04-14 16:18 | 41.83114 | 11.05585 | 40906 ft | 483 kts | 182° |
| 2026-04-14 16:19 | 41.77585 | 11.04253 | 40907 ft | 484 kts | 198° |
| 2026-04-14 16:19 | 41.71687 | 11.00066 | 40901 ft | 485 kts | 217° |
| 2026-04-14 16:20 | 41.67103 | 10.93464 | 40903 ft | 487 kts | 236° |
| 2026-04-14 16:20 | 41.64092 | 10.85345 | 40905 ft | 488 kts | 242° |
| 2026-04-14 16:21 | 41.60391 | 10.77767 | 40902 ft | 488 kts | 232° |
| 2026-04-14 16:21 | 41.56135 | 10.70682 | 40905 ft | 488 kts | 230° |
| 2026-04-14 16:22 | 41.51762 | 10.63736 | 40899 ft | 488 kts | 229° |
| 2026-04-14 16:22 | 41.47380 | 10.56821 | 40909 ft | 488 kts | 229° |
| 2026-04-14 16:23 | 41.43001 | 10.49893 | 40902 ft | 489 kts | 230° |
| 2026-04-14 16:23 | 41.38651 | 10.43005 | 40900 ft | 489 kts | 230° |
| 2026-04-14 16:24 | 41.34265 | 10.36073 | 40900 ft | 489 kts | 229° |
| 2026-04-14 16:24 | 41.29873 | 10.29149 | 40901 ft | 489 kts | 229° |
| 2026-04-14 16:25 | 41.25481 | 10.22241 | 40903 ft | 488 kts | 229° |
| 2026-04-14 16:25 | 41.20848 | 10.15656 | 40901 ft | 488 kts | 219° |
| 2026-04-14 16:26 | 41.15349 | 10.10365 | 40900 ft | 489 kts | 213° |
| 2026-04-14 16:26 | 41.09673 | 10.05408 | 40901 ft | 489 kts | 213° |
| 2026-04-14 16:27 | 41.03968 | 10.00499 | 40901 ft | 488 kts | 213° |
| 2026-04-14 16:27 | 40.98270 | 9.95574 | 40898 ft | 489 kts | 213° |
| 2026-04-14 16:28 | 40.92584 | 9.90644 | 40900 ft | 489 kts | 213° |
| 2026-04-14 16:28 | 40.86896 | 9.85716 | 40900 ft | 488 kts | 213° |
| 2026-04-14 16:29 | 40.81113 | 9.81113 | 40905 ft | 489 kts | 209° |
| 2026-04-14 16:29 | 40.75119 | 9.76822 | 40895 ft | 491 kts | 208° |
| 2026-04-14 16:30 | 40.69096 | 9.72587 | 40829 ft | 490 kts | 208° |
| 2026-04-14 16:30 | 40.66091 | 9.70467 | 40601 ft | 490 kts | 208° |
| 2026-04-14 16:30 | 40.63092 | 9.68346 | 40224 ft | 488 kts | 208° |
| 2026-04-14 16:30 | 40.60098 | 9.66226 | 39484 ft | 490 kts | 208° |
| 2026-04-14 16:31 | 40.57087 | 9.64091 | 38745 ft | 492 kts | 208° |
| 2026-04-14 16:31 | 40.54068 | 9.61951 | 37909 ft | 493 kts | 208° |
| 2026-04-14 16:31 | 40.51050 | 9.59814 | 37144 ft | 492 kts | 208° |
| 2026-04-14 16:31 | 40.48046 | 9.57690 | 36445 ft | 490 kts | 208° |
| 2026-04-14 16:32 | 40.45051 | 9.55573 | 35732 ft | 488 kts | 208° |
| 2026-04-14 16:32 | 40.42061 | 9.53464 | 34992 ft | 488 kts | 207° |
| 2026-04-14 16:32 | 40.39072 | 9.51357 | 34182 ft | 489 kts | 207° |
| 2026-04-14 16:32 | 40.36068 | 9.49242 | 33238 ft | 491 kts | 207° |
| 2026-04-14 16:33 | 40.33053 | 9.47122 | 32328 ft | 491 kts | 207° |
| 2026-04-14 16:33 | 40.30044 | 9.45009 | 31413 ft | 492 kts | 208° |
| 2026-04-14 16:33 | 40.27059 | 9.42914 | 30485 ft | 494 kts | 208° |
| 2026-04-14 16:33 | 40.23979 | 9.40755 | 29497 ft | 496 kts | 208° |
| 2026-04-14 16:34 | 40.20991 | 9.38661 | 28853 ft | 490 kts | 208° |
| 2026-04-14 16:34 | 40.17998 | 9.36566 | 28195 ft | 484 kts | 208° |
| 2026-04-14 16:34 | 40.15037 | 9.34495 | 27529 ft | 480 kts | 208° |
| 2026-04-14 16:34 | 40.12106 | 9.32447 | 26863 ft | 475 kts | 207° |
| 2026-04-14 16:35 | 40.09199 | 9.30418 | 26205 ft | 471 kts | 207° |
| 2026-04-14 16:35 | 40.06318 | 9.28410 | 25540 ft | 467 kts | 207° |
| 2026-04-14 16:35 | 40.03461 | 9.26420 | 24889 ft | 463 kts | 207° |
| 2026-04-14 16:35 | 40.00628 | 9.24448 | 24242 ft | 459 kts | 207° |
| 2026-04-14 16:36 | 39.97824 | 9.22500 | 23599 ft | 455 kts | 207° |
| 2026-04-14 16:36 | 39.95078 | 9.20593 | 22890 ft | 450 kts | 207° |
| 2026-04-14 16:36 | 39.92332 | 9.18689 | 22241 ft | 444 kts | 207° |
| 2026-04-14 16:36 | 39.89621 | 9.16809 | 21590 ft | 439 kts | 207° |
| 2026-04-14 16:37 | 39.86919 | 9.15021 | 20944 ft | 433 kts | 202° |
| 2026-04-14 16:37 | 39.84095 | 9.13747 | 20296 ft | 427 kts | 195° |
| 2026-04-14 16:37 | 39.81256 | 9.12718 | 19653 ft | 422 kts | 194° |
| 2026-04-14 16:37 | 39.78428 | 9.11740 | 19016 ft | 418 kts | 193° |
| 2026-04-14 16:38 | 39.75626 | 9.10787 | 18367 ft | 415 kts | 193° |
| 2026-04-14 16:38 | 39.72844 | 9.09846 | 17660 ft | 411 kts | 193° |
| 2026-04-14 16:38 | 39.70078 | 9.08914 | 17311 ft | 412 kts | 193° |
| 2026-04-14 16:38 | 39.67265 | 9.08098 | 17025 ft | 416 kts | 186° |
| 2026-04-14 16:39 | 39.64390 | 9.08157 | 16765 ft | 413 kts | 168° |
| 2026-04-14 16:39 | 39.61715 | 9.09396 | 16515 ft | 408 kts | 150° |
| 2026-04-14 16:39 | 39.59296 | 9.11287 | 16245 ft | 404 kts | 146° |
| 2026-04-14 16:39 | 39.56933 | 9.13266 | 15985 ft | 403 kts | 146° |
| 2026-04-14 16:40 | 39.54585 | 9.15232 | 15738 ft | 401 kts | 146° |
| 2026-04-14 16:40 | 39.52238 | 9.17183 | 15478 ft | 400 kts | 146° |
| 2026-04-14 16:40 | 39.49896 | 9.19121 | 15222 ft | 398 kts | 146° |
| 2026-04-14 16:40 | 39.47567 | 9.21043 | 14966 ft | 396 kts | 146° |
| 2026-04-14 16:41 | 39.45243 | 9.22954 | 14755 ft | 395 kts | 147° |
| 2026-04-14 16:41 | 39.42922 | 9.24860 | 14504 ft | 394 kts | 146° |
| 2026-04-14 16:41 | 39.40612 | 9.26756 | 14255 ft | 392 kts | 146° |
| 2026-04-14 16:41 | 39.38340 | 9.28617 | 14027 ft | 391 kts | 146° |
| 2026-04-14 16:42 | 39.36047 | 9.30495 | 13791 ft | 389 kts | 146° |
| 2026-04-14 16:42 | 39.33766 | 9.32361 | 13532 ft | 387 kts | 146° |
| 2026-04-14 16:42 | 39.31529 | 9.34191 | 13395 ft | 371 kts | 146° |
| 2026-04-14 16:42 | 39.29397 | 9.35930 | 13279 ft | 353 kts | 146° |
| 2026-04-14 16:43 | 39.27370 | 9.37582 | 13147 ft | 336 kts | 146° |
| 2026-04-14 16:43 | 39.25443 | 9.39154 | 13035 ft | 320 kts | 146° |
| 2026-04-14 16:43 | 39.23602 | 9.40654 | 12924 ft | 306 kts | 146° |
| 2026-04-14 16:43 | 39.21834 | 9.42098 | 12803 ft | 298 kts | 146° |
| 2026-04-14 16:44 | 39.20075 | 9.43533 | 12674 ft | 299 kts | 147° |
| 2026-04-14 16:44 | 39.18312 | 9.44968 | 12551 ft | 300 kts | 147° |
| 2026-04-14 16:44 | 39.16545 | 9.46405 | 12422 ft | 300 kts | 146° |
| 2026-04-14 16:45 | 39.13034 | 9.49259 | 12169 ft | 297 kts | 147° |
| 2026-04-14 16:45 | 39.11294 | 9.50696 | 12035 ft | 297 kts | 145° |
| 2026-04-14 16:45 | 39.09806 | 9.52521 | 11917 ft | 296 kts | 124° |
| 2026-04-14 16:45 | 39.08999 | 9.54926 | 11778 ft | 294 kts | 100° |
| 2026-04-14 16:46 | 39.09058 | 9.57531 | 11654 ft | 294 kts | 76° |
| 2026-04-14 16:46 | 39.09937 | 9.59846 | 11527 ft | 294 kts | 52° |
| 2026-04-14 16:46 | 39.11515 | 9.61498 | 11400 ft | 295 kts | 26° |
| 2026-04-14 16:46 | 39.13497 | 9.62143 | 11286 ft | 297 kts | 2° |
| 2026-04-14 16:47 | 39.15517 | 9.61665 | 11157 ft | 298 kts | 337° |
| 2026-04-14 16:47 | 39.17319 | 9.60348 | 11031 ft | 298 kts | 327° |
| 2026-04-14 16:47 | 39.19040 | 9.58848 | 10903 ft | 298 kts | 326° |
| 2026-04-14 16:47 | 39.20761 | 9.57356 | 10726 ft | 298 kts | 326° |
| 2026-04-14 16:48 | 39.22431 | 9.55772 | 10293 ft | 299 kts | 316° |
| 2026-04-14 16:48 | 39.23629 | 9.53593 | 9775 ft | 300 kts | 292° |
| 2026-04-14 16:48 | 39.24021 | 9.51012 | 9447 ft | 290 kts | 266° |
| 2026-04-14 16:48 | 39.23499 | 9.48585 | 9258 ft | 276 kts | 240° |
| 2026-04-14 16:49 | 39.22337 | 9.46750 | 9075 ft | 256 kts | 218° |
| 2026-04-14 16:49 | 39.20850 | 9.45615 | 8892 ft | 245 kts | 201° |
| 2026-04-14 16:49 | 39.19215 | 9.45142 | 8756 ft | 240 kts | 183° |
| 2026-04-14 16:49 | 39.17584 | 9.45404 | 8614 ft | 240 kts | 161° |
| 2026-04-14 16:50 | 39.16113 | 9.46412 | 8497 ft | 240 kts | 146° |
| 2026-04-14 16:50 | 39.14738 | 9.47626 | 8382 ft | 238 kts | 145° |
| 2026-04-14 16:50 | 39.13374 | 9.48835 | 8234 ft | 238 kts | 146° |
| 2026-04-14 16:50 | 39.12000 | 9.50027 | 7973 ft | 239 kts | 146° |
| 2026-04-14 16:51 | 39.10483 | 9.50843 | 7556 ft | 239 kts | 175° |
| 2026-04-14 16:51 | 39.08903 | 9.50344 | 7221 ft | 238 kts | 214° |
| 2026-04-14 16:51 | 39.07905 | 9.48707 | 6846 ft | 235 kts | 253° |
| 2026-04-14 16:51 | 39.07922 | 9.46659 | 6492 ft | 232 kts | 292° |
| 2026-04-14 16:52 | 39.08857 | 9.45020 | 6202 ft | 226 kts | 316° |
| 2026-04-14 16:52 | 39.09870 | 9.43502 | 5953 ft | 223 kts | 306° |
| 2026-04-14 16:52 | 39.10610 | 9.41754 | 5661 ft | 222 kts | 295° |
| 2026-04-14 16:52 | 39.11094 | 9.39863 | 5351 ft | 222 kts | 287° |
| 2026-04-14 16:53 | 39.11403 | 9.37918 | 5110 ft | 222 kts | 283° |
| 2026-04-14 16:53 | 39.11612 | 9.35954 | 4831 ft | 221 kts | 279° |
| 2026-04-14 16:53 | 39.11763 | 9.33983 | 4504 ft | 221 kts | 279° |
| 2026-04-14 16:53 | 39.11883 | 9.32020 | 4209 ft | 219 kts | 277° |
| 2026-04-14 16:54 | 39.11983 | 9.30067 | 3899 ft | 218 kts | 277° |
| 2026-04-14 16:54 | 39.12073 | 9.28126 | 3630 ft | 215 kts | 277° |
| 2026-04-14 16:54 | 39.12156 | 9.26221 | 3373 ft | 211 kts | 277° |
| 2026-04-14 16:54 | 39.12235 | 9.24340 | 3085 ft | 210 kts | 278° |
| 2026-04-14 16:55 | 39.12313 | 9.22474 | 2784 ft | 208 kts | 278° |
| 2026-04-14 16:55 | 39.12530 | 9.20658 | 2478 ft | 202 kts | 292° |
| 2026-04-14 16:55 | 39.13255 | 9.19167 | 2194 ft | 195 kts | 315° |
| 2026-04-14 16:55 | 39.14235 | 9.17981 | 2022 ft | 193 kts | 319° |
| 2026-04-14 16:56 | 39.15253 | 9.16832 | 1989 ft | 195 kts | 319° |
| 2026-04-14 16:56 | 39.16244 | 9.15707 | 2001 ft | 181 kts | 319° |
| 2026-04-14 16:56 | 39.17150 | 9.14700 | 2004 ft | 164 kts | 320° |
| 2026-04-14 16:56 | 39.17954 | 9.13761 | 1865 ft | 155 kts | 318° |
| 2026-04-14 16:57 | 39.18749 | 9.12839 | 1497 ft | 151 kts | 318° |
| 2026-04-14 16:57 | 39.19507 | 9.11968 | 1296 ft | 140 kts | 318° |
| 2026-04-14 16:57 | 39.20201 | 9.11165 | 1109 ft | 129 kts | 317° |
| 2026-04-14 16:57 | 39.20839 | 9.10426 | 946 ft | 118 kts | 319° |
| 2026-04-14 16:58 | 39.21436 | 9.09735 | 785 ft | 114 kts | 319° |
| 2026-04-14 16:58 | 39.22020 | 9.09036 | 642 ft | 115 kts | 319° |
| 2026-04-14 16:58 | 39.22623 | 9.08338 | 477 ft | 118 kts | 320° |
| 2026-04-14 16:58 | 39.23240 | 9.07620 | 326 ft | 119 kts | 320° |
| 2026-04-14 16:59 | 39.23863 | 9.06908 | 181 ft | 120 kts | 322° |
| 2026-04-14 16:59 | 39.24480 | 9.06190 | 38 ft | 117 kts | 321° |
| 2026-04-14 16:59 | 39.25020 | 9.05585 | 26 ft | 74 kts | 318° |
| 2026-04-14 16:59 | 39.25226 | 9.05346 | 30 ft | 26 kts | 318° |
| 2026-04-14 17:00 | 39.25314 | 9.05314 | 27 ft | 5 kts | 33° |
| 2026-04-14 17:00 | 39.25368 | 9.05387 | 31 ft | 18 kts | 47° |
| 2026-04-14 17:00 | 39.25399 | 9.05523 | 25 ft | 16 kts | 94° |
| 2026-04-14 17:00 | 39.25363 | 9.05645 | 29 ft | 6 kts | 119° |
| 2026-04-14 17:01 | 39.25330 | 9.05690 | 28 ft | 7 kts | 136° |
| 2026-04-14 17:01 | 39.25287 | 9.05735 | 29 ft | 9 kts | 141° |
| 2026-04-14 17:01 | 39.25234 | 9.05789 | 29 ft | 10 kts | 141° |
| 2026-04-14 17:01 | 39.25174 | 9.05851 | 30 ft | 12 kts | 141° |
| 2026-04-14 17:02 | 39.25156 | 9.05892 | 27 ft | 2 kts | 82° |
| 2026-04-14 17:02 | 39.25177 | 9.05931 | 27 ft | 8 kts | 46° |
| 2026-04-14 17:02 | 39.25217 | 9.05985 | 29 ft | 9 kts | 49° |
| 2026-04-14 17:02 | 39.25240 | 9.06021 | 27 ft | 0 kts | 50° |